Chetwynd, Canada
Current Conditions -  °F | °C
As of 11:00 AM on Tuesday 21 Oct 2014 (Local Time) from CYCQ Reporting Station
Moderate Fog Moderate Fog  
Wind Chill: 30°   Ceiling: 9000
Heat Index: 30°   Visibility: 0.12mi
Dew Point: 30°   Wind: 2mph
Humidity: 100%   Direction: 210°SSW
Pressure: 29.58"   Gusts: NA
Location:  55.7°N, 121.63°W
Report Text: CYCQ 211700Z 21002KT 1/8SM FZFG BKN090 OVC200 M01/M01 A2958 RMK FG4AC2CI2 VIS N 3 SLP044
Loading
Personal Weather Stations






























Interactive Weather Map
Tropical Storm Tracking
New forecast layout! Learn more

10-Day Weather Forecast

Advertisements
Track Severe Weather on mobile